Time,TemperatureF,DewpointF,PressureIn,WindDirection,WindDirectionDegrees,WindSpeedMPH,WindSpeedGustMPH,Humidity,HourlyPrecipIn,Conditions,Clouds,dailyrainin,SolarRadiationWatts/m^2,SoftwareType,DateUTC
2013-05-07 13:04:00,73.6,31.3,30.00,SSW,202,8.1,8.1,21,0.00,,---,0.00,0.00,VWS V14.01,2013-05-07 18:04:00,
2013-05-07 13:06:00,73.6,31.3,30.00,SSW,202,8.1,8.1,21,0.00,,---,0.00,0.00,VWS V14.01,2013-05-07 18:06:00,
2013-05-07 13:11:00,74.1,31.7,30.00,SSW,202,4.0,4.0,21,0.00,,---,0.00,0.00,VWS V14.01,2013-05-07 18:11:00,
2013-05-07 13:16:00,74.3,31.9,30.00,SW,225,3.8,3.8,21,0.00,,---,0.00,0.00,VWS V14.01,2013-05-07 18:16:00,
2013-05-07 13:22:00,74.3,31.9,30.00,South,180,2.0,4.9,21,0.00,,---,0.00,0.00,VWS V14.01,2013-05-07 18:22:00,
2013-05-07 13:27:00,74.7,28.4,30.00,South,180,6.0,6.3,18,0.00,,---,0.00,0.00,VWS V14.01,2013-05-07 18:27:00,
2013-05-07 13:33:00,74.5,28.2,29.97,WSW,248,6.5,6.7,18,0.00,,---,0.00,0.00,VWS V14.01,2013-05-07 18:33:00,
2013-05-07 13:38:00,73.6,24.7,29.97,WSW,248,2.7,20.1,16,0.00,,---,0.00,0.00,VWS V14.01,2013-05-07 18:38:00,
2013-05-07 13:43:00,73.6,24.7,29.97,WSW,248,10.5,10.5,16,0.00,,---,0.00,0.00,VWS V14.01,2013-05-07 18:43:00,
2013-05-07 13:51:00,73.6,24.7,29.97,NW,315,6.5,6.5,16,0.00,,---,0.00,0.00,VWS V14.01,2013-05-07 18:51:00,
2013-05-07 13:57:00,73.6,27.5,29.97,WSW,248,6.3,6.3,18,0.00,,---,0.00,0.00,VWS V14.01,2013-05-07 18:57:00,
2013-05-07 14:03:00,74.3,25.2,29.97,NNW,338,1.3,1.3,16,0.00,,---,0.00,0.00,VWS V14.01,2013-05-07 19:03:00,
2013-05-07 14:10:00,74.5,25.4,29.94,SW,225,3.4,4.9,16,0.00,,---,0.00,0.00,VWS V14.01,2013-05-07 19:10:00,
2013-05-07 14:16:00,74.8,25.7,29.94,WNW,292,3.4,3.4,16,0.00,,---,0.00,0.00,VWS V14.01,2013-05-07 19:16:00,
2013-05-07 14:22:00,74.1,25.1,29.94,West,270,3.4,3.4,16,0.00,,---,0.00,0.00,VWS V14.01,2013-05-07 19:22:00,
2013-05-07 14:27:00,74.7,25.5,29.94,WSW,248,6.3,6.3,16,0.00,,---,0.00,0.00,VWS V14.01,2013-05-07 19:27:00,
2013-05-07 14:32:00,75.4,24.6,29.94,SW,225,5.4,5.4,15,0.00,,---,0.00,0.00,VWS V14.01,2013-05-07 19:32:00,
2013-05-07 14:38:00,75.4,24.6,29.97,SW,225,5.4,5.4,15,0.00,,---,0.00,0.00,VWS V14.01,2013-05-07 19:38:00,
2013-05-07 14:44:00,75.0,25.8,29.97,SW,225,4.3,4.3,16,0.00,,---,0.00,0.00,VWS V14.01,2013-05-07 19:44:00,
2013-05-07 14:50:00,74.8,25.7,29.97,WNW,292,2.9,2.9,16,0.00,,---,0.00,0.00,VWS V14.01,2013-05-07 19:50:00,
2013-05-07 14:56:00,74.8,25.7,29.97,ESE,112,1.6,1.6,16,0.00,,---,0.00,0.00,VWS V14.01,2013-05-07 19:56:00,
2013-05-07 15:01:00,75.6,24.7,30.00,West,270,5.4,6.3,15,0.00,,---,0.00,0.00,VWS V14.01,2013-05-07 20:01:00,
2013-05-07 15:07:00,75.0,25.8,30.00,SSE,158,4.9,4.9,16,0.00,,---,0.00,0.00,VWS V14.01,2013-05-07 20:07:00,
2013-05-07 15:12:00,75.0,25.8,29.97,SSW,202,2.0,2.0,16,0.00,,---,0.00,0.00,VWS V14.01,2013-05-07 20:12:00,
2013-05-07 15:17:00,75.0,25.8,29.97,SSW,202,2.0,2.0,16,0.00,,---,0.00,0.00,VWS V14.01,2013-05-07 20:17:00,
2013-05-07 15:23:00,74.3,25.2,29.97,WSW,248,4.3,5.4,16,0.00,,---,0.00,0.00,VWS V14.01,2013-05-07 20:23:00,
2013-05-07 15:32:00,73.9,25.0,29.97,SW,225,3.8,3.8,16,0.00,,---,0.00,0.00,VWS V14.01,2013-05-07 20:32:00,
2013-05-07 15:38:00,73.9,25.0,29.97,SW,225,4.0,4.0,16,0.00,,---,0.00,0.00,VWS V14.01,2013-05-07 20:38:00,
2013-05-07 15:44:00,74.3,25.2,29.97,NW,315,3.4,4.3,16,0.00,,---,0.00,0.00,VWS V14.01,2013-05-07 20:44:00,
2013-05-07 15:49:00,74.7,25.5,29.97,WNW,292,3.8,3.8,16,0.00,,---,0.00,0.00,VWS V14.01,2013-05-07 20:49:00,
2013-05-07 15:54:00,74.7,25.5,29.97,NNW,338,3.4,3.4,16,0.00,,---,0.00,0.00,VWS V14.01,2013-05-07 20:54:00,
2013-05-07 15:59:00,75.2,24.4,29.97,WSW,248,5.4,6.3,15,0.00,,---,0.00,0.00,VWS V14.01,2013-05-07 20:59:00,
2013-05-07 16:05:00,75.6,24.7,29.97,SSW,202,5.8,6.3,15,0.00,,---,0.00,0.00,VWS V14.01,2013-05-07 21:05:00,
2013-05-07 16:10:00,75.6,24.7,29.97,West,270,4.3,4.3,15,0.00,,---,0.00,0.00,VWS V14.01,2013-05-07 21:10:00,
2013-05-07 16:16:00,75.4,24.6,29.97,West,270,4.0,4.0,15,0.00,,---,0.00,0.00,VWS V14.01,2013-05-07 21:16:00,
2013-05-07 16:21:00,75.4,24.6,29.94,SSW,202,2.9,2.9,15,0.00,,---,0.00,0.00,VWS V14.01,2013-05-07 21:21:00,
2013-05-07 16:26:00,75.6,24.7,29.94,WSW,248,3.6,7.4,15,0.00,,---,0.00,0.00,VWS V14.01,2013-05-07 21:26:00,
2013-05-07 16:32:00,75.6,24.7,29.94,SW,225,7.4,7.4,15,0.00,,---,0.00,0.00,VWS V14.01,2013-05-07 21:32:00,
2013-05-07 16:38:00,75.4,24.6,29.94,WSW,248,6.3,7.6,15,0.00,,---,0.00,0.00,VWS V14.01,2013-05-07 21:38:00,
2013-05-07 16:43:00,75.4,24.6,29.94,WSW,248,7.4,7.4,15,0.00,,---,0.00,0.00,VWS V14.01,2013-05-07 21:43:00,
2013-05-07 16:49:00,75.4,24.6,29.94,WSW,248,2.9,2.9,15,0.00,,---,0.00,0.00,VWS V14.01,2013-05-07 21:49:00,
2013-05-07 16:55:00,75.6,24.7,29.94,SSW,202,5.4,5.4,15,0.00,,---,0.00,0.00,VWS V14.01,2013-05-07 21:55:00,
2013-05-07 17:01:00,76.1,25.1,29.94,SSW,202,5.4,5.4,15,0.00,,---,0.00,0.00,VWS V14.01,2013-05-07 22:01:00,
2013-05-07 17:06:00,76.1,25.1,29.94,South,180,3.8,5.8,15,0.00,,---,0.00,0.00,VWS V14.01,2013-05-07 22:06:00,
2013-05-07 17:11:00,76.3,25.3,29.91,South,180,1.6,4.3,15,0.00,,---,0.00,0.00,VWS V14.01,2013-05-07 22:11:00,
2013-05-07 17:16:00,76.3,25.3,29.91,SSE,158,1.1,1.1,15,0.00,,---,0.00,0.00,VWS V14.01,2013-05-07 22:16:00,
2013-05-07 17:22:00,77.0,25.9,29.91,South,180,3.4,3.4,15,0.00,,---,0.00,0.00,VWS V14.01,2013-05-07 22:22:00,
2013-05-07 17:28:00,76.8,25.7,29.91,SW,225,4.3,4.3,15,0.00,,---,0.00,0.00,VWS V14.01,2013-05-07 22:28:00,
2013-05-07 17:34:00,76.6,25.6,29.94,WNW,292,0.0,0.0,15,0.00,,---,0.00,0.00,VWS V14.01,2013-05-07 22:34:00,
2013-05-07 17:40:00,76.6,25.6,29.94,SSW,202,3.6,3.8,15,0.00,,---,0.00,0.00,VWS V14.01,2013-05-07 22:40:00,
2013-05-07 17:45:00,76.5,25.4,29.94,SW,225,5.4,6.0,15,0.00,,---,0.00,0.00,VWS V14.01,2013-05-07 22:45:00,
2013-05-07 17:51:00,76.1,25.1,29.94,SW,225,4.7,5.4,15,0.00,,---,0.00,0.00,VWS V14.01,2013-05-07 22:51:00,
2013-05-07 17:57:00,75.9,25.0,29.91,WSW,248,3.1,3.1,15,0.00,,---,0.00,0.00,VWS V14.01,2013-05-07 22:57:00,
2013-05-07 18:03:00,75.7,24.9,29.91,West,270,5.6,5.6,15,0.00,,---,0.00,0.00,VWS V14.01,2013-05-07 23:03:00,
2013-05-07 18:09:00,75.6,24.7,29.91,SSW,202,2.7,4.3,15,0.00,,---,0.00,0.00,VWS V14.01,2013-05-07 23:09:00,
2013-05-07 18:14:00,75.6,24.7,29.91,WSW,248,4.3,4.3,15,0.00,,---,0.00,0.00,VWS V14.01,2013-05-07 23:14:00,
2013-05-07 18:19:00,75.6,24.7,29.91,WSW,248,4.7,5.8,15,0.00,,---,0.00,0.00,VWS V14.01,2013-05-07 23:19:00,
2013-05-07 18:25:00,75.4,24.6,29.91,West,270,4.0,4.0,15,0.00,,---,0.00,0.00,VWS V14.01,2013-05-07 23:25:00,
2013-05-07 18:31:00,74.8,25.7,29.91,SSW,202,4.9,4.9,16,0.00,,---,0.00,0.00,VWS V14.01,2013-05-07 23:31:00,
2013-05-07 18:36:00,74.7,25.5,29.91,SSW,202,3.8,4.9,16,0.00,,---,0.00,0.00,VWS V14.01,2013-05-07 23:36:00,
2013-05-07 18:42:00,74.5,25.4,29.91,SW,225,2.9,2.9,16,0.00,,---,0.00,0.00,VWS V14.01,2013-05-07 23:42:00,
2013-05-07 18:47:00,74.1,25.1,29.91,SSW,202,2.5,2.7,16,0.00,,---,0.00,0.00,VWS V14.01,2013-05-07 23:47:00,
2013-05-07 18:52:00,73.9,25.0,29.88,South,180,3.4,3.8,16,0.00,,---,0.00,0.00,VWS V14.01,2013-05-07 23:52:00,
2013-05-07 18:58:00,73.8,24.8,29.88,SSW,202,2.5,2.7,16,0.00,,---,0.00,0.00,VWS V14.01,2013-05-07 23:58:00,
2013-05-07 19:03:00,73.8,24.8,29.88,SSE,158,3.1,3.1,16,0.00,,---,0.00,0.00,VWS V14.01,2013-05-08 00:03:00,
2013-05-07 19:09:00,73.8,24.8,29.88,SSW,202,2.5,3.1,16,0.00,,---,5.70,0.00,VWS V14.01,2013-05-08 00:09:00,
2013-05-07 19:15:00,73.0,24.2,29.91,South,180,3.8,3.8,16,0.00,,---,5.70,0.00,VWS V14.01,2013-05-08 00:15:00,
2013-05-07 19:20:00,72.9,24.1,29.91,South,180,0.0,2.7,16,0.00,,---,5.70,0.00,VWS V14.01,2013-05-08 00:20:00,
2013-05-07 19:26:00,72.5,23.8,29.91,SSW,202,2.2,2.2,16,0.00,,---,5.70,0.00,VWS V14.01,2013-05-08 00:26:00,
2013-05-07 19:31:00,72.3,23.6,29.91,SSW,202,2.0,2.0,16,0.00,,---,5.70,0.00,VWS V14.01,2013-05-08 00:31:00,
2013-05-07 19:38:00,72.3,23.6,29.91,SSW,202,1.3,1.3,16,0.00,,---,5.70,0.00,VWS V14.01,2013-05-08 00:38:00,
2013-05-07 19:44:00,72.3,23.6,29.91,SSW,202,1.3,1.3,16,0.00,,---,5.70,0.00,VWS V14.01,2013-05-08 00:44:00,
2013-05-07 19:49:00,71.8,23.2,29.91,SSW,202,1.1,1.6,16,0.00,,---,5.70,0.00,VWS V14.01,2013-05-08 00:49:00,
2013-05-07 19:54:00,71.8,23.2,29.91,SSW,202,0.0,1.1,16,0.00,,---,5.70,0.00,VWS V14.01,2013-05-08 00:54:00,
2013-05-07 19:59:00,70.9,23.9,29.91,SSW,202,0.0,0.0,17,0.00,,---,5.70,0.00,VWS V14.01,2013-05-08 00:59:00,
2013-05-07 20:05:00,70.3,23.5,29.91,SSW,202,0.0,0.0,17,0.00,,---,5.70,0.00,VWS V14.01,2013-05-08 01:05:00,
2013-05-07 20:11:00,70.0,23.2,29.91,SSW,202,0.0,0.0,17,0.00,,---,5.70,0.00,VWS V14.01,2013-05-08 01:11:00,
2013-05-07 20:18:00,69.4,22.8,0.00,SSW,202,0.0,0.0,17,0.00,,---,5.70,0.00,VWS V14.01,2013-05-08 01:18:00,
2013-05-07 20:24:00,69.1,22.5,0.00,SSW,202,0.0,0.0,17,0.00,,---,5.70,0.00,VWS V14.01,2013-05-08 01:24:00,
2013-05-07 20:30:00,68.9,22.3,29.91,SSW,202,0.0,0.0,17,0.00,,---,5.70,0.00,VWS V14.01,2013-05-08 01:30:00,
2013-05-07 20:35:00,68.5,22.0,29.88,SSW,202,0.0,0.0,17,0.00,,---,5.70,0.00,VWS V14.01,2013-05-08 01:35:00,
2013-05-07 20:40:00,68.4,21.9,29.88,SSW,202,0.0,0.0,17,0.00,,---,5.70,0.00,VWS V14.01,2013-05-08 01:40:00,
2013-05-07 20:46:00,68.0,21.6,29.88,South,180,0.0,0.0,17,0.00,,---,5.70,0.00,VWS V14.01,2013-05-08 01:46:00,